sensor_id;sensor_type;location;lat;lon;timestamp;pressure;altitude;pressure_sealevel;temperature;humidity
49945;BME280;35838;49.134;9.212;2023-07-29T00:00:04;99602.91;;;18.75;100.00
49945;BME280;35838;49.134;9.212;2023-07-29T00:01:40;99596.69;;;18.77;100.00
49945;BME280;35838;49.134;9.212;2023-07-29T00:03:11;99591.50;;;18.76;100.00
49945;BME280;35838;49.134;9.212;2023-07-29T00:04:45;99594.25;;;18.73;100.00
49945;BME280;35838;49.134;9.212;2023-07-29T00:06:16;99586.16;;;18.77;100.00
49945;BME280;35838;49.134;9.212;2023-07-29T00:07:50;99590.78;;;18.72;100.00
49945;BME280;35838;49.134;9.212;2023-07-29T00:09:21;99589.31;;;18.65;100.00
49945;BME280;35838;49.134;9.212;2023-07-29T00:10:54;99582.47;;;18.61;100.00
49945;BME280;35838;49.134;9.212;2023-07-29T00:12:28;99588.66;;;18.60;100.00
49945;BME280;35838;49.134;9.212;2023-07-29T00:14:01;99583.13;;;18.66;100.00
49945;BME280;35838;49.134;9.212;2023-07-29T00:15:32;99583.19;;;18.64;100.00
49945;BME280;35838;49.134;9.212;2023-07-29T00:17:06;99584.03;;;18.65;100.00
49945;BME280;35838;49.134;9.212;2023-07-29T00:18:40;99578.59;;;18.70;100.00
49945;BME280;35838;49.134;9.212;2023-07-29T00:20:11;99583.00;;;18.69;100.00
49945;BME280;35838;49.134;9.212;2023-07-29T00:21:44;99575.00;;;18.72;100.00
49945;BME280;35838;49.134;9.212;2023-07-29T00:23:16;99567.25;;;18.69;100.00
49945;BME280;35838;49.134;9.212;2023-07-29T00:24:51;99571.56;;;18.70;100.00
49945;BME280;35838;49.134;9.212;2023-07-29T00:26:25;99575.13;;;18.69;100.00
49945;BME280;35838;49.134;9.212;2023-07-29T00:28:02;99565.53;;;18.68;100.00
49945;BME280;35838;49.134;9.212;2023-07-29T00:29:33;99560.28;;;18.68;100.00
49945;BME280;35838;49.134;9.212;2023-07-29T00:31:06;99561.13;;;18.69;100.00
49945;BME280;35838;49.134;9.212;2023-07-29T00:32:37;99561.97;;;18.69;100.00
49945;BME280;35838;49.134;9.212;2023-07-29T00:34:11;99559.47;;;18.66;100.00
49945;BME280;35838;49.134;9.212;2023-07-29T00:35:47;99563.81;;;18.67;100.00
49945;BME280;35838;49.134;9.212;2023-07-29T00:37:21;99558.44;;;18.70;100.00
49945;BME280;35838;49.134;9.212;2023-07-29T00:38:52;99559.44;;;18.68;100.00
49945;BME280;35838;49.134;9.212;2023-07-29T00:40:28;99553.44;;;18.64;100.00
49945;BME280;35838;49.134;9.212;2023-07-29T00:41:59;99567.31;;;18.68;100.00
49945;BME280;35838;49.134;9.212;2023-07-29T00:43:35;99568.22;;;18.67;100.00
49945;BME280;35838;49.134;9.212;2023-07-29T00:45:07;99557.00;;;18.63;100.00
49945;BME280;35838;49.134;9.212;2023-07-29T00:46:40;99566.53;;;18.66;100.00
49945;BME280;35838;49.134;9.212;2023-07-29T00:48:12;99554.16;;;18.68;100.00
49945;BME280;35838;49.134;9.212;2023-07-29T00:49:45;99549.75;;;18.68;100.00
49945;BME280;35838;49.134;9.212;2023-07-29T00:51:16;99557.56;;;18.70;100.00
49945;BME280;35838;49.134;9.212;2023-07-29T00:52:50;99553.19;;;18.70;100.00
49945;BME280;35838;49.134;9.212;2023-07-29T00:54:21;99555.59;;;18.75;100.00
49945;BME280;35838;49.134;9.212;2023-07-29T00:55:55;99548.50;;;18.77;100.00
49945;BME280;35838;49.134;9.212;2023-07-29T00:57:26;99545.94;;;18.75;100.00
49945;BME280;35838;49.134;9.212;2023-07-29T00:59:03;99544.22;;;18.74;100.00
49945;BME280;35838;49.134;9.212;2023-07-29T01:00:37;99550.19;;;18.78;100.00
49945;BME280;35838;49.134;9.212;2023-07-29T01:02:08;99547.53;;;18.79;100.00
49945;BME280;35838;49.134;9.212;2023-07-29T01:03:42;99536.94;;;18.81;100.00
49945;BME280;35838;49.134;9.212;2023-07-29T01:05:16;99534.00;;;18.68;100.00
49945;BME280;35838;49.134;9.212;2023-07-29T01:06:50;99532.00;;;18.73;100.00
49945;BME280;35838;49.134;9.212;2023-07-29T01:08:32;99525.78;;;18.76;100.00
49945;BME280;35838;49.134;9.212;2023-07-29T01:10:07;99527.50;;;18.77;100.00
49945;BME280;35838;49.134;9.212;2023-07-29T01:11:41;99524.84;;;18.77;100.00
49945;BME280;35838;49.134;9.212;2023-07-29T01:13:20;99525.63;;;18.79;100.00
49945;BME280;35838;49.134;9.212;2023-07-29T01:14:58;99516.09;;;18.76;100.00
49945;BME280;35838;49.134;9.212;2023-07-29T01:16:36;99516.97;;;18.77;100.00
49945;BME280;35838;49.134;9.212;2023-07-29T01:18:11;99512.84;;;18.71;100.00
49945;BME280;35838;49.134;9.212;2023-07-29T01:19:48;99514.78;;;18.66;100.00
49945;BME280;35838;49.134;9.212;2023-07-29T01:21:26;99512.03;;;18.69;100.00
49945;BME280;35838;49.134;9.212;2023-07-29T01:23:00;99515.50;;;18.70;100.00
49945;BME280;35838;49.134;9.212;2023-07-29T01:24:36;99521.44;;;18.75;100.00
49945;BME280;35838;49.134;9.212;2023-07-29T01:26:07;99512.88;;;18.70;100.00
49945;BME280;35838;49.134;9.212;2023-07-29T01:27:41;99508.78;;;18.64;100.00
49945;BME280;35838;49.134;9.212;2023-07-29T01:29:12;99509.53;;;18.66;100.00
49945;BME280;35838;49.134;9.212;2023-07-29T01:30:46;99505.19;;;18.65;100.00
49945;BME280;35838;49.134;9.212;2023-07-29T01:32:20;99507.81;;;18.65;100.00
49945;BME280;35838;49.134;9.212;2023-07-29T01:33:57;99503.38;;;18.67;100.00
49945;BME280;35838;49.134;9.212;2023-07-29T01:35:31;99495.63;;;18.64;100.00
49945;BME280;35838;49.134;9.212;2023-07-29T01:37:05;99496.34;;;18.68;100.00
49945;BME280;35838;49.134;9.212;2023-07-29T01:38:40;99494.03;;;18.60;100.00
49945;BME280;35838;49.134;9.212;2023-07-29T01:40:17;99503.75;;;18.58;100.00
49945;BME280;35838;49.134;9.212;2023-07-29T01:41:48;99501.00;;;18.61;100.00
49945;BME280;35838;49.134;9.212;2023-07-29T01:43:23;99505.06;;;18.68;100.00
49945;BME280;35838;49.134;9.212;2023-07-29T01:44:56;99502.16;;;18.74;100.00
49945;BME280;35838;49.134;9.212;2023-07-29T01:46:31;99502.16;;;18.74;100.00
49945;BME280;35838;49.134;9.212;2023-07-29T01:48:05;99498.63;;;18.75;100.00
49945;BME280;35838;49.134;9.212;2023-07-29T01:49:36;99497.09;;;18.70;100.00
49945;BME280;35838;49.134;9.212;2023-07-29T01:51:11;99499.63;;;18.73;100.00
49945;BME280;35838;49.134;9.212;2023-07-29T01:52:42;99491.66;;;18.74;100.00
49945;BME280;35838;49.134;9.212;2023-07-29T01:54:16;99493.22;;;18.78;100.00
49945;BME280;35838;49.134;9.212;2023-07-29T01:55:50;99483.50;;;18.81;100.00
49945;BME280;35838;49.134;9.212;2023-07-29T01:57:23;99482.00;;;18.75;100.00
49945;BME280;35838;49.134;9.212;2023-07-29T01:58:54;99484.16;;;18.86;100.00
49945;BME280;35838;49.134;9.212;2023-07-29T02:00:28;99474.75;;;18.80;100.00
49945;BME280;35838;49.134;9.212;2023-07-29T02:01:59;99477.03;;;18.69;100.00
49945;BME280;35838;49.134;9.212;2023-07-29T02:03:33;99479.44;;;18.73;100.00
49945;BME280;35838;49.134;9.212;2023-07-29T02:05:04;99481.13;;;18.74;100.00
49945;BME280;35838;49.134;9.212;2023-07-29T02:06:38;99481.34;;;18.70;100.00
49945;BME280;35838;49.134;9.212;2023-07-29T02:08:09;99477.03;;;18.69;100.00
49945;BME280;35838;49.134;9.212;2023-07-29T02:09:43;99479.72;;;18.67;100.00
49945;BME280;35838;49.134;9.212;2023-07-29T02:11:16;99485.69;;;18.71;100.00
49945;BME280;35838;49.134;9.212;2023-07-29T02:12:51;99470.78;;;18.71;100.00
49945;BME280;35838;49.134;9.212;2023-07-29T02:14:24;99475.88;;;18.74;100.00
49945;BME280;35838;49.134;9.212;2023-07-29T02:15:55;99473.41;;;18.71;100.00
49945;BME280;35838;49.134;9.212;2023-07-29T02:17:30;99464.41;;;18.77;100.00
49945;BME280;35838;49.134;9.212;2023-07-29T02:19:01;99467.88;;;18.77;100.00
49945;BME280;35838;49.134;9.212;2023-07-29T02:20:34;99473.75;;;18.83;100.00
49945;BME280;35838;49.134;9.212;2023-07-29T02:22:05;99464.09;;;18.64;100.00
49945;BME280;35838;49.134;9.212;2023-07-29T02:23:39;99466.38;;;18.72;100.00
49945;BME280;35838;49.134;9.212;2023-07-29T02:25:10;99469.88;;;18.72;100.00
49945;BME280;35838;49.134;9.212;2023-07-29T02:26:46;99474.97;;;18.75;100.00
49945;BME280;35838;49.134;9.212;2023-07-29T02:28:20;99472.22;;;18.78;100.00
49945;BME280;35838;49.134;9.212;2023-07-29T02:29:51;99468.66;;;18.79;100.00
49945;BME280;35838;49.134;9.212;2023-07-29T02:31:24;99466.03;;;18.79;100.00
49945;BME280;35838;49.134;9.212;2023-07-29T02:32:58;99469.28;;;18.85;100.00
49945;BME280;35838;49.134;9.212;2023-07-29T02:34:32;99471.72;;;18.89;100.00
49945;BME280;35838;49.134;9.212;2023-07-29T02:36:06;99474.34;;;18.89;100.00
49945;BME280;35838;49.134;9.212;2023-07-29T02:37:37;99471.63;;;18.91;100.00
49945;BME280;35838;49.134;9.212;2023-07-29T02:39:10;99464.69;;;18.90;100.00
49945;BME280;35838;49.134;9.212;2023-07-29T02:40:41;99463.44;;;18.78;100.00
49945;BME280;35838;49.134;9.212;2023-07-29T02:42:17;99465.13;;;18.81;100.00
49945;BME280;35838;49.134;9.212;2023-07-29T02:43:51;99465.88;;;18.83;100.00
49945;BME280;35838;49.134;9.212;2023-07-29T02:45:22;99465.75;;;18.86;100.00
49945;BME280;35838;49.134;9.212;2023-07-29T02:46:56;99467.03;;;18.77;100.00
49945;BME280;35838;49.134;9.212;2023-07-29T02:48:27;99466.94;;;18.78;100.00
49945;BME280;35838;49.134;9.212;2023-07-29T02:50:01;99473.91;;;18.79;100.00
49945;BME280;35838;49.134;9.212;2023-07-29T02:51:35;99475.63;;;18.81;100.00
49945;BME280;35838;49.134;9.212;2023-07-29T02:53:06;99465.25;;;18.77;100.00
49945;BME280;35838;49.134;9.212;2023-07-29T02:54:39;99461.81;;;18.75;100.00
49945;BME280;35838;49.134;9.212;2023-07-29T02:56:13;99461.56;;;18.82;100.00
49945;BME280;35838;49.134;9.212;2023-07-29T02:57:47;99457.22;;;18.81;100.00
49945;BME280;35838;49.134;9.212;2023-07-29T02:59:20;99456.44;;;18.78;100.00
49945;BME280;35838;49.134;9.212;2023-07-29T03:00:51;99456.22;;;18.83;100.00
49945;BME280;35838;49.134;9.212;2023-07-29T03:02:25;99448.34;;;18.83;100.00
49945;BME280;35838;49.134;9.212;2023-07-29T03:03:58;99444.13;;;18.79;100.00
49945;BME280;35838;49.134;9.212;2023-07-29T03:05:29;99437.91;;;18.82;100.00
49945;BME280;35838;49.134;9.212;2023-07-29T03:07:03;99438.81;;;18.81;100.00
49945;BME280;35838;49.134;9.212;2023-07-29T03:08:37;99437.13;;;18.79;100.00
49945;BME280;35838;49.134;9.212;2023-07-29T03:10:08;99434.91;;;18.70;100.00
49945;BME280;35838;49.134;9.212;2023-07-29T03:11:42;99437.38;;;18.73;100.00
49945;BME280;35838;49.134;9.212;2023-07-29T03:13:15;99434.91;;;18.70;100.00
49945;BME280;35838;49.134;9.212;2023-07-29T03:14:49;99428.22;;;18.63;100.00
49945;BME280;35838;49.134;9.212;2023-07-29T03:16:20;99426.34;;;18.65;100.00
49945;BME280;35838;49.134;9.212;2023-07-29T03:17:54;99428.00;;;18.68;100.00
49945;BME280;35838;49.134;9.212;2023-07-29T03:19:25;99423.47;;;18.71;100.00
49945;BME280;35838;49.134;9.212;2023-07-29T03:20:58;99427.44;;;18.61;100.00
49945;BME280;35838;49.134;9.212;2023-07-29T03:22:30;99421.31;;;18.60;100.00
49945;BME280;35838;49.134;9.212;2023-07-29T03:24:03;99422.03;;;18.64;100.00
49945;BME280;35838;49.134;9.212;2023-07-29T03:25:37;99418.34;;;18.68;100.00
49945;BME280;35838;49.134;9.212;2023-07-29T03:27:08;99419.25;;;18.67;100.00
49945;BME280;35838;49.134;9.212;2023-07-29T03:28:45;99416.34;;;18.73;100.00
49945;BME280;35838;49.134;9.212;2023-07-29T03:30:18;99413.66;;;18.75;100.00
49945;BME280;35838;49.134;9.212;2023-07-29T03:31:52;99420.06;;;18.69;100.00
49945;BME280;35838;49.134;9.212;2023-07-29T03:33:24;99426.00;;;18.54;100.00
49945;BME280;35838;49.134;9.212;2023-07-29T03:34:58;99422.47;;;18.55;100.00
49945;BME280;35838;49.134;9.212;2023-07-29T03:36:29;99423.94;;;18.60;100.00
49945;BME280;35838;49.134;9.212;2023-07-29T03:38:03;99418.13;;;18.54;100.00
49945;BME280;35838;49.134;9.212;2023-07-29T03:39:36;99417.44;;;18.48;100.00
49945;BME280;35838;49.134;9.212;2023-07-29T03:41:07;99420.03;;;18.50;100.00
49945;BME280;35838;49.134;9.212;2023-07-29T03:42:41;99423.63;;;18.47;100.00
49945;BME280;35838;49.134;9.212;2023-07-29T03:44:14;99423.19;;;18.38;100.00
49945;BME280;35838;49.134;9.212;2023-07-29T03:45:48;99421.38;;;18.40;100.00
49945;BME280;35838;49.134;9.212;2023-07-29T03:47:19;99427.44;;;18.40;100.00
49945;BME280;35838;49.134;9.212;2023-07-29T03:48:53;99423.91;;;18.41;100.00
49945;BME280;35838;49.134;9.212;2023-07-29T03:50:24;99424.41;;;18.50;100.00
49945;BME280;35838;49.134;9.212;2023-07-29T03:51:58;99425.13;;;18.53;100.00
49945;BME280;35838;49.134;9.212;2023-07-29T03:53:29;99421.66;;;18.53;100.00
49945;BME280;35838;49.134;9.212;2023-07-29T03:55:03;99426.91;;;18.53;100.00
49945;BME280;35838;49.134;9.212;2023-07-29T03:56:34;99418.03;;;18.55;100.00
49945;BME280;35838;49.134;9.212;2023-07-29T03:58:08;99414.06;;;18.46;100.00
49945;BME280;35838;49.134;9.212;2023-07-29T03:59:42;99407.81;;;18.49;100.00
49945;BME280;35838;49.134;9.212;2023-07-29T04:01:16;99410.38;;;18.51;100.00
49945;BME280;35838;49.134;9.212;2023-07-29T04:02:49;99403.41;;;18.50;100.00
49945;BME280;35838;49.134;9.212;2023-07-29T04:04:21;99408.53;;;18.53;100.00
49945;BME280;35838;49.134;9.212;2023-07-29T04:05:54;99409.25;;;18.56;100.00
49945;BME280;35838;49.134;9.212;2023-07-29T04:07:25;99405.41;;;18.63;100.00
49945;BME280;35838;49.134;9.212;2023-07-29T04:08:59;99402.91;;;18.60;100.00
49945;BME280;35838;49.134;9.212;2023-07-29T04:10:33;99413.50;;;18.59;100.00
49945;BME280;35838;49.134;9.212;2023-07-29T04:12:06;99417.72;;;18.63;100.00
49945;BME280;35838;49.134;9.212;2023-07-29T04:13:50;99420.13;;;18.68;100.00
49945;BME280;35838;49.134;9.212;2023-07-29T04:15:26;99416.22;;;18.57;100.00
49945;BME280;35838;49.134;9.212;2023-07-29T04:16:57;99416.78;;;18.64;100.00
49945;BME280;35838;49.134;9.212;2023-07-29T04:18:31;99408.75;;;18.67;100.00
49945;BME280;35838;49.134;9.212;2023-07-29T04:20:02;99407.69;;;18.71;100.00
49945;BME280;35838;49.134;9.212;2023-07-29T04:21:36;99396.31;;;18.71;100.00
49945;BME280;35838;49.134;9.212;2023-07-29T04:23:10;99395.47;;;18.70;100.00
49945;BME280;35838;49.134;9.212;2023-07-29T04:24:41;99397.25;;;18.70;100.00
49945;BME280;35838;49.134;9.212;2023-07-29T04:26:14;99399.31;;;18.63;100.00
49945;BME280;35838;49.134;9.212;2023-07-29T04:27:46;99403.00;;;18.59;100.00
49945;BME280;35838;49.134;9.212;2023-07-29T04:29:19;99398.22;;;18.67;100.00
49945;BME280;35838;49.134;9.212;2023-07-29T04:30:53;99403.59;;;18.45;100.00
49945;BME280;35838;49.134;9.212;2023-07-29T04:32:28;99409.16;;;18.58;100.00
49945;BME280;35838;49.134;9.212;2023-07-29T04:33:59;99417.31;;;18.52;100.00
49945;BME280;35838;49.134;9.212;2023-07-29T04:35:33;99426.00;;;18.54;100.00
49945;BME280;35838;49.134;9.212;2023-07-29T04:37:06;99425.00;;;18.56;100.00
49945;BME280;35838;49.134;9.212;2023-07-29T04:38:37;99430.06;;;18.61;100.00
49945;BME280;35838;49.134;9.212;2023-07-29T04:40:11;99432.56;;;18.64;100.00
49945;BME280;35838;49.134;9.212;2023-07-29T04:41:42;99441.28;;;18.64;100.00
49945;BME280;35838;49.134;9.212;2023-07-29T04:43:16;99450.41;;;18.56;100.00
49945;BME280;35838;49.134;9.212;2023-07-29T04:44:49;99455.25;;;18.65;100.00
49945;BME280;35838;49.134;9.212;2023-07-29T04:46:23;99450.97;;;18.64;100.00
49945;BME280;35838;49.134;9.212;2023-07-29T04:47:57;99461.38;;;18.66;100.00
49945;BME280;35838;49.134;9.212;2023-07-29T04:49:28;99463.16;;;18.65;100.00
49945;BME280;35838;49.134;9.212;2023-07-29T04:51:02;99473.47;;;18.70;100.00
49945;BME280;35838;49.134;9.212;2023-07-29T04:52:33;99471.69;;;18.70;100.00
49945;BME280;35838;49.134;9.212;2023-07-29T04:54:07;99485.84;;;18.68;100.00
49945;BME280;35838;49.134;9.212;2023-07-29T04:55:38;99487.53;;;18.69;100.00
49945;BME280;35838;49.134;9.212;2023-07-29T04:57:11;99491.94;;;18.47;100.00
49945;BME280;35838;49.134;9.212;2023-07-29T04:58:43;99486.03;;;18.42;100.00
49945;BME280;35838;49.134;9.212;2023-07-29T05:00:16;99477.38;;;18.40;100.00
49945;BME280;35838;49.134;9.212;2023-07-29T05:01:50;99467.72;;;18.41;100.00
49945;BME280;35838;49.134;9.212;2023-07-29T05:03:24;99465.88;;;18.43;100.00
49945;BME280;35838;49.134;9.212;2023-07-29T05:04:55;99470.59;;;18.35;100.00
49945;BME280;35838;49.134;9.212;2023-07-29T05:06:28;99460.81;;;18.38;100.00
49945;BME280;35838;49.134;9.212;2023-07-29T05:07:59;99450.25;;;18.40;100.00
49945;BME280;35838;49.134;9.212;2023-07-29T05:09:33;99465.16;;;18.39;100.00
49945;BME280;35838;49.134;9.212;2023-07-29T05:11:07;99475.72;;;18.38;100.00
49945;BME280;35838;49.134;9.212;2023-07-29T05:12:38;99461.16;;;18.30;100.00
49945;BME280;35838;49.134;9.212;2023-07-29T05:14:12;99470.81;;;18.30;100.00
49945;BME280;35838;49.134;9.212;2023-07-29T05:15:43;99470.81;;;18.30;100.00
49945;BME280;35838;49.134;9.212;2023-07-29T05:17:19;99475.13;;;18.31;100.00
49945;BME280;35838;49.134;9.212;2023-07-29T05:18:50;99495.50;;;18.26;100.00
49945;BME280;35838;49.134;9.212;2023-07-29T05:20:24;99499.03;;;18.25;100.00
49945;BME280;35838;49.134;9.212;2023-07-29T05:21:55;99505.88;;;18.08;100.00
49945;BME280;35838;49.134;9.212;2023-07-29T05:23:29;99498.78;;;18.10;100.00
49945;BME280;35838;49.134;9.212;2023-07-29T05:25:03;99492.34;;;18.17;100.00
49945;BME280;35838;49.134;9.212;2023-07-29T05:26:34;99484.31;;;18.21;100.00
49945;BME280;35838;49.134;9.212;2023-07-29T05:28:07;99485.28;;;18.20;100.00
49945;BME280;35838;49.134;9.212;2023-07-29T05:29:38;99475.59;;;18.20;100.00
49945;BME280;35838;49.134;9.212;2023-07-29T05:31:12;99474.75;;;18.20;100.00
49945;BME280;35838;49.134;9.212;2023-07-29T05:32:45;99480.06;;;18.18;100.00
49945;BME280;35838;49.134;9.212;2023-07-29T05:34:19;99475.59;;;18.20;100.00
49945;BME280;35838;49.134;9.212;2023-07-29T05:35:53;99477.25;;;18.23;100.00
49945;BME280;35838;49.134;9.212;2023-07-29T05:37:24;99478.75;;;18.28;100.00
49945;BME280;35838;49.134;9.212;2023-07-29T05:38:58;99478.31;;;18.19;100.00
49945;BME280;35838;49.134;9.212;2023-07-29T05:40:29;99483.28;;;18.25;100.00
49945;BME280;35838;49.134;9.212;2023-07-29T05:42:03;99473.31;;;18.33;100.00
49945;BME280;35838;49.134;9.212;2023-07-29T05:43:34;99472.28;;;18.37;100.00
49945;BME280;35838;49.134;9.212;2023-07-29T05:45:08;99468.56;;;18.41;100.00
49945;BME280;35838;49.134;9.212;2023-07-29T05:46:39;99459.66;;;18.45;100.00
49945;BME280;35838;49.134;9.212;2023-07-29T05:48:15;99470.00;;;18.48;100.00
49945;BME280;35838;49.134;9.212;2023-07-29T05:49:47;99464.69;;;18.50;100.00
49945;BME280;35838;49.134;9.212;2023-07-29T05:51:21;99477.69;;;18.53;100.00
49945;BME280;35838;49.134;9.212;2023-07-29T05:52:54;99475.78;;;18.57;100.00
49945;BME280;35838;49.134;9.212;2023-07-29T05:54:26;99487.09;;;18.59;100.00
49945;BME280;35838;49.134;9.212;2023-07-29T05:55:59;99481.59;;;18.44;100.00
49945;BME280;35838;49.134;9.212;2023-07-29T05:57:30;99488.34;;;18.50;100.00
49945;BME280;35838;49.134;9.212;2023-07-29T05:59:04;99478.59;;;18.52;100.00
49945;BME280;35838;49.134;9.212;2023-07-29T06:00:35;99484.81;;;18.30;100.00
49945;BME280;35838;49.134;9.212;2023-07-29T06:02:08;99483.69;;;18.36;100.00
49945;BME280;35838;49.134;9.212;2023-07-29T06:03:42;99480.38;;;18.31;100.00
49945;BME280;35838;49.134;9.212;2023-07-29T06:05:16;99482.78;;;18.37;100.00
49945;BME280;35838;49.134;9.212;2023-07-29T06:06:47;99485.91;;;18.25;100.00
49945;BME280;35838;49.134;9.212;2023-07-29T06:08:20;99476.78;;;18.33;100.00
49945;BME280;35838;49.134;9.212;2023-07-29T06:09:52;99473.03;;;18.39;100.00
49945;BME280;35838;49.134;9.212;2023-07-29T06:11:26;99468.28;;;18.47;100.00
49945;BME280;35838;49.134;9.212;2023-07-29T06:12:59;99464.53;;;18.53;100.00
49945;BME280;35838;49.134;9.212;2023-07-29T06:14:30;99468.69;;;18.59;100.00
49945;BME280;35838;49.134;9.212;2023-07-29T06:16:04;99469.59;;;18.58;100.00
49945;BME280;35838;49.134;9.212;2023-07-29T06:17:35;99470.41;;;18.60;100.00
49945;BME280;35838;49.134;9.212;2023-07-29T06:19:11;99465.56;;;18.70;100.00
49945;BME280;35838;49.134;9.212;2023-07-29T06:20:43;99461.91;;;18.74;100.00
49945;BME280;35838;49.134;9.212;2023-07-29T06:22:17;99471.09;;;18.84;100.00
49945;BME280;35838;49.134;9.212;2023-07-29T06:23:48;99463.03;;;18.87;100.00
49945;BME280;35838;49.134;9.212;2023-07-29T06:25:22;99457.47;;;18.95;100.00
49945;BME280;35838;49.134;9.212;2023-07-29T06:26:53;99463.72;;;18.92;100.00
49945;BME280;35838;49.134;9.212;2023-07-29T06:28:26;99462.19;;;18.87;100.00
49945;BME280;35838;49.134;9.212;2023-07-29T06:30:00;99462.06;;;18.90;100.00
49945;BME280;35838;49.134;9.212;2023-07-29T06:31:31;99462.59;;;18.98;100.00
49945;BME280;35838;49.134;9.212;2023-07-29T06:33:05;99460.72;;;19.00;100.00
49945;BME280;35838;49.134;9.212;2023-07-29T06:34:42;99463.00;;;19.08;100.00
49945;BME280;35838;49.134;9.212;2023-07-29T06:36:13;99470.69;;;19.13;100.00
49945;BME280;35838;49.134;9.212;2023-07-29T06:37:46;99474.94;;;19.15;100.00
49945;BME280;35838;49.134;9.212;2023-07-29T06:39:17;99469.06;;;19.10;100.00
49945;BME280;35838;49.134;9.212;2023-07-29T06:40:51;99474.13;;;19.15;100.00
49945;BME280;35838;49.134;9.212;2023-07-29T06:42:23;99471.19;;;19.21;100.00
49945;BME280;35838;49.134;9.212;2023-07-29T06:43:56;99478.66;;;19.30;100.00
49945;BME280;35838;49.134;9.212;2023-07-29T06:45:27;99478.34;;;19.36;100.00
49945;BME280;35838;49.134;9.212;2023-07-29T06:47:01;99477.66;;;19.33;100.00
49945;BME280;35838;49.134;9.212;2023-07-29T06:48:32;99490.88;;;19.31;100.00
49945;BME280;35838;49.134;9.212;2023-07-29T06:50:08;99491.19;;;19.25;100.00
49945;BME280;35838;49.134;9.212;2023-07-29T06:51:40;99491.19;;;19.25;100.00
49945;BME280;35838;49.134;9.212;2023-07-29T06:53:13;99499.28;;;19.20;100.00
49945;BME280;35838;49.134;9.212;2023-07-29T06:54:44;99493.81;;;19.25;100.00
49945;BME280;35838;49.134;9.212;2023-07-29T06:56:18;99488.25;;;19.31;100.00
49945;BME280;35838;49.134;9.212;2023-07-29T06:57:49;99490.81;;;19.33;100.00
49945;BME280;35838;49.134;9.212;2023-07-29T06:59:22;99493.38;;;19.34;100.00
49945;BME280;35838;49.134;9.212;2023-07-29T07:00:55;99493.03;;;19.23;100.00
49945;BME280;35838;49.134;9.212;2023-07-29T07:02:28;99488.16;;;19.33;100.00
49945;BME280;35838;49.134;9.212;2023-07-29T07:03:59;99488.81;;;19.38;100.00
49945;BME280;35838;49.134;9.212;2023-07-29T07:05:36;99490.31;;;19.44;100.00
49945;BME280;35838;49.134;9.212;2023-07-29T07:07:06;99485.38;;;19.55;100.00
49945;BME280;35838;49.134;9.212;2023-07-29T07:08:40;99487.72;;;19.61;100.00
49945;BME280;35838;49.134;9.212;2023-07-29T07:10:13;99477.78;;;19.49;100.00
49945;BME280;35838;49.134;9.212;2023-07-29T07:11:46;99487.94;;;19.37;100.00
49945;BME280;35838;49.134;9.212;2023-07-29T07:13:17;99485.31;;;19.37;100.00
49945;BME280;35838;49.134;9.212;2023-07-29T07:14:51;99488.66;;;19.41;100.00
49945;BME280;35838;49.134;9.212;2023-07-29T07:16:22;99496.50;;;19.42;100.00
49945;BME280;35838;49.134;9.212;2023-07-29T07:17:56;99497.75;;;19.53;100.00
49945;BME280;35838;49.134;9.212;2023-07-29T07:19:27;99503.97;;;19.52;100.00
49945;BME280;35838;49.134;9.212;2023-07-29T07:21:03;99503.69;;;19.39;100.00
49945;BME280;35838;49.134;9.212;2023-07-29T07:22:34;99503.19;;;19.50;100.00
49945;BME280;35838;49.134;9.212;2023-07-29T07:24:07;99513.91;;;19.45;100.00
49945;BME280;35838;49.134;9.212;2023-07-29T07:25:41;99506.25;;;19.40;100.00
49945;BME280;35838;49.134;9.212;2023-07-29T07:27:13;99506.72;;;19.49;100.00
49945;BME280;35838;49.134;9.212;2023-07-29T07:28:46;99505.16;;;19.45;100.00
49945;BME280;35838;49.134;9.212;2023-07-29T07:30:17;99501.34;;;19.52;100.00
49945;BME280;35838;49.134;9.212;2023-07-29T07:31:52;99502.03;;;19.55;100.00
49945;BME280;35838;49.134;9.212;2023-07-29T07:33:23;99508.28;;;19.53;100.00
49945;BME280;35838;49.134;9.212;2023-07-29T07:34:56;99508.34;;;19.51;100.00
49945;BME280;35838;49.134;9.212;2023-07-29T07:36:30;99513.25;;;19.59;100.00
49945;BME280;35838;49.134;9.212;2023-07-29T07:38:04;99513.88;;;19.64;100.00
49945;BME280;35838;49.134;9.212;2023-07-29T07:39:35;99507.84;;;19.62;100.00
49945;BME280;35838;49.134;9.212;2023-07-29T07:41:08;99503.06;;;19.70;100.00
49945;BME280;35838;49.134;9.212;2023-07-29T07:42:39;99501.06;;;19.76;100.00
49945;BME280;35838;49.134;9.212;2023-07-29T07:44:13;99501.84;;;19.78;100.00
49945;BME280;35838;49.134;9.212;2023-07-29T07:45:46;99503.22;;;19.67;100.00
49945;BME280;35838;49.134;9.212;2023-07-29T07:47:19;99495.94;;;19.72;100.00
49945;BME280;35838;49.134;9.212;2023-07-29T07:48:50;99494.41;;;19.68;100.00
49945;BME280;35838;49.134;9.212;2023-07-29T07:50:24;99494.53;;;19.65;100.00
49945;BME280;35838;49.134;9.212;2023-07-29T07:51:57;99494.22;;;19.71;100.00
49945;BME280;35838;49.134;9.212;2023-07-29T07:53:31;99495.00;;;19.73;100.00
49945;BME280;35838;49.134;9.212;2023-07-29T07:55:02;99496.41;;;19.81;100.00
49945;BME280;35838;49.134;9.212;2023-07-29T07:56:36;99495.81;;;19.76;100.00
49945;BME280;35838;49.134;9.212;2023-07-29T07:58:07;99491.69;;;19.70;100.00
49945;BME280;35838;49.134;9.212;2023-07-29T07:59:41;99497.78;;;19.70;100.00
49945;BME280;35838;49.134;9.212;2023-07-29T08:01:12;99495.66;;;19.79;100.00
49945;BME280;35838;49.134;9.212;2023-07-29T08:02:45;99488.88;;;19.92;100.00
49945;BME280;35838;49.134;9.212;2023-07-29T08:04:19;99495.00;;;19.93;100.00
49945;BME280;35838;49.134;9.212;2023-07-29T08:05:50;99488.28;;;19.87;100.00